Time;durP1;ratioP1;P1;durP2;ratioP2;P2;SDS_P1;SDS_P2;PMS_P1;PMS_P2;Temp;Humidity;BMP_temperature;BMP_pressure;BME280_temperature;BME280_humidity;BME280_pressure;Samples;Min_cycle;Max_cycle;Signal;HPM_P1;HPM_P2
2021/03/21 00:01:20;;;;;;;2.65;1.98;;;10.10;72.60;;;;;;5050200;28;20028;-83
2021/03/21 00:03:46;;;;;;;3.80;2.20;;;10.10;72.60;;;;;;5045197;28;20043;-84
2021/03/21 00:06:12;;;;;;;2.38;2.00;;;10.10;72.60;;;;;;5072420;28;20044;-83
2021/03/21 00:08:38;;;;;;;2.65;2.08;;;10.10;72.70;;;;;;5055755;28;20028;-83
2021/03/21 00:11:06;;;;;;;2.40;2.03;;;10.10;72.70;;;;;;5052301;28;20044;-83
2021/03/21 00:13:33;;;;;;;2.25;1.80;;;10.10;72.80;;;;;;5050747;28;20131;-82
2021/03/21 00:16:00;;;;;;;2.40;2.10;;;10.00;72.70;;;;;;5066669;28;20051;-83
2021/03/21 00:18:29;;;;;;;2.53;2.05;;;10.00;72.70;;;;;;5054060;28;20128;-83
2021/03/21 00:20:56;;;;;;;2.50;2.03;;;10.00;72.70;;;;;;5051868;28;20091;-83
2021/03/21 00:23:22;;;;;;;2.83;2.20;;;10.00;72.70;;;;;;5054315;28;20037;-83
2021/03/21 00:25:48;;;;;;;2.38;2.00;;;10.00;72.80;;;;;;5036747;28;20082;-83
2021/03/21 00:28:17;;;;;;;3.78;2.20;;;10.00;72.80;;;;;;5038621;28;20086;-84
2021/03/21 00:30:45;;;;;;;3.38;2.38;;;10.00;72.90;;;;;;5067628;28;20060;-83
2021/03/21 00:33:14;;;;;;;3.42;2.13;;;10.00;72.80;;;;;;5070550;28;20048;-83
2021/03/21 00:35:39;;;;;;;3.05;2.25;;;10.00;72.90;;;;;;5041569;28;20054;-83
2021/03/21 00:38:09;;;;;;;3.10;2.35;;;10.00;72.90;;;;;;5038092;28;20037;-83
2021/03/21 00:40:35;;;;;;;3.92;2.25;;;10.00;72.90;;;;;;5036794;28;20032;-83
2021/03/21 00:43:01;;;;;;;2.58;2.10;;;10.00;72.90;;;;;;5050344;28;20017;-84
2021/03/21 00:45:28;;;;;;;2.63;2.10;;;9.90;72.90;;;;;;5054544;28;20024;-82
2021/03/21 00:47:55;;;;;;;3.38;2.40;;;10.00;72.90;;;;;;5067602;28;20069;-83
2021/03/21 00:50:33;;;;;;;2.53;2.03;;;9.90;72.90;;;;;;5070494;28;20043;-83
2021/03/21 00:53:00;;;;;;;3.33;2.58;;;9.90;73.00;;;;;;5054652;28;20054;-83
2021/03/21 00:55:26;;;;;;;3.28;2.45;;;9.90;72.90;;;;;;5071960;28;20032;-83
2021/03/21 00:57:53;;;;;;;3.30;2.40;;;9.90;72.90;;;;;;5047508;28;20087;-83
2021/03/21 01:00:27;;;;;;;3.05;2.40;;;9.90;72.90;;;;;;5054726;28;20037;-83
2021/03/21 01:02:53;;;;;;;2.70;2.30;;;9.90;73.00;;;;;;5071909;28;20474;-83
2021/03/21 01:05:21;;;;;;;2.80;2.10;;;9.90;73.00;;;;;;5071967;28;20028;-83
2021/03/21 01:07:49;;;;;;;2.75;2.15;;;9.90;73.00;;;;;;5055704;28;20082;-83
2021/03/21 01:10:15;;;;;;;3.10;2.40;;;9.90;73.00;;;;;;5057130;28;20124;-83
2021/03/21 01:12:41;;;;;;;2.88;2.20;;;9.90;73.00;;;;;;5076141;28;20392;-82
2021/03/21 01:15:08;;;;;;;2.50;2.28;;;9.90;73.00;;;;;;5029750;28;20025;-86
2021/03/21 01:17:34;;;;;;;2.55;2.10;;;9.90;73.00;;;;;;5006152;28;20465;-82
2021/03/21 01:19:59;;;;;;;2.85;2.28;;;9.90;73.00;;;;;;5039731;28;20063;-82
2021/03/21 01:22:25;;;;;;;2.35;2.10;;;9.90;73.00;;;;;;5004550;28;20037;-83
2021/03/21 01:24:51;;;;;;;2.67;2.17;;;9.80;73.00;;;;;;5028490;28;20029;-82
2021/03/21 01:27:18;;;;;;;2.75;2.10;;;9.80;73.00;;;;;;5002518;28;20147;-83
2021/03/21 01:29:43;;;;;;;2.30;1.95;;;9.80;73.10;;;;;;5022004;28;20037;-83
2021/03/21 01:32:11;;;;;;;2.30;1.95;;;9.80;73.10;;;;;;5015063;28;20363;-86
2021/03/21 01:34:36;;;;;;;2.88;2.10;;;9.80;73.00;;;;;;5037359;28;20500;-82
2021/03/21 01:37:02;;;;;;;3.65;1.95;;;9.80;73.10;;;;;;5038839;28;20140;-83
2021/03/21 01:39:28;;;;;;;2.70;2.03;;;9.80;73.10;;;;;;5021010;28;20056;-83
2021/03/21 01:42:03;;;;;;;2.50;2.08;;;9.80;73.10;;;;;;4996378;28;20017;-83
2021/03/21 01:44:30;;;;;;;2.25;1.85;;;9.80;73.20;;;;;;5033687;28;20047;-83
2021/03/21 01:46:58;;;;;;;2.47;1.67;;;9.80;73.10;;;;;;5038447;28;20029;-83
2021/03/21 01:49:31;;;;;;;1.95;1.67;;;9.80;73.20;;;;;;5037999;28;20063;-82
2021/03/21 01:52:00;;;;;;;2.20;1.60;;;9.80;73.10;;;;;;5018350;28;20114;-82
2021/03/21 01:54:27;;;;;;;2.10;1.90;;;9.80;73.10;;;;;;5021331;28;20065;-82
2021/03/21 01:56:56;;;;;;;1.95;1.73;;;9.80;73.10;;;;;;5018251;28;20039;-82
2021/03/21 01:59:24;;;;;;;1.95;1.67;;;9.70;73.10;;;;;;5011729;28;20033;-84
2021/03/21 02:01:52;;;;;;;2.45;2.22;;;9.70;73.20;;;;;;5020404;28;20032;-82
2021/03/21 02:04:18;;;;;;;1.83;1.70;;;9.70;73.20;;;;;;5037445;28;20124;-83
2021/03/21 02:06:56;;;;;;;1.77;1.50;;;9.70;73.20;;;;;;5026587;28;20021;-85
2021/03/21 02:09:36;;;;;;;2.10;1.60;;;9.70;73.30;;;;;;5026474;28;20429;-83
2021/03/21 02:12:02;;;;;;;1.45;1.35;;;9.70;73.30;;;;;;5020892;28;20028;-84
2021/03/21 02:14:42;;;;;;;1.88;1.60;;;9.70;73.20;;;;;;5047364;28;20049;-83
2021/03/21 02:17:26;;;;;;;1.60;1.38;;;9.70;73.20;;;;;;5057702;28;20020;-82
2021/03/21 02:20:27;;;;;;;1.65;1.35;;;9.70;73.20;;;;;;5068256;28;20504;-82
2021/03/21 02:22:56;;;;;;;1.70;1.60;;;9.70;73.30;;;;;;5057334;28;20032;-81
2021/03/21 02:25:34;;;;;;;1.60;1.50;;;9.70;73.20;;;;;;5071402;28;20020;-82
2021/03/21 02:28:24;;;;;;;1.92;1.63;;;9.70;73.30;;;;;;5067429;28;20036;-82
2021/03/21 02:30:58;;;;;;;1.92;1.50;;;9.60;73.40;;;;;;5070346;28;20036;-82
2021/03/21 02:33:29;;;;;;;1.52;1.42;;;9.60;73.20;;;;;;5057330;28;20458;-82
2021/03/21 02:36:01;;;;;;;1.50;1.40;;;9.60;73.30;;;;;;5057211;28;20033;-82
2021/03/21 02:38:41;;;;;;;1.50;1.40;;;9.60;73.30;;;;;;5057141;28;20020;-82
2021/03/21 02:41:14;;;;;;;1.60;1.50;;;9.60;73.30;;;;;;5056965;28;20039;-82
2021/03/21 02:43:45;;;;;;;1.58;1.48;;;9.60;73.30;;;;;;5073609;28;20073;-82
2021/03/21 02:46:16;;;;;;;1.50;1.40;;;9.60;73.40;;;;;;5073934;28;20021;-83
2021/03/21 02:48:49;;;;;;;1.73;1.63;;;9.60;73.40;;;;;;5073545;28;20032;-83
2021/03/21 02:51:22;;;;;;;1.98;1.40;;;9.60;73.40;;;;;;5073890;28;20044;-82
2021/03/21 02:53:53;;;;;;;1.58;1.48;;;9.60;73.40;;;;;;5065821;28;20040;-82
2021/03/21 02:56:25;;;;;;;2.20;1.80;;;9.60;73.40;;;;;;5055617;28;20032;-85
2021/03/21 02:58:53;;;;;;;1.75;1.65;;;9.60;73.40;;;;;;5073095;28;20029;-83
2021/03/21 03:01:57;;;;;;;1.60;1.50;;;9.60;73.40;;;;;;5057579;28;20025;-83
2021/03/21 03:04:52;;;;;;;1.50;1.40;;;9.60;73.50;;;;;;4973065;28;20390;-84
2021/03/21 03:07:25;;;;;;;1.52;1.42;;;9.60;73.50;;;;;;5070422;28;20063;-81
2021/03/21 03:09:58;;;;;;;1.90;1.70;;;9.60;73.40;;;;;;5073550;28;20036;-82
2021/03/21 03:12:38;;;;;;;1.65;1.40;;;9.60;73.40;;;;;;5073686;28;20035;-82
2021/03/21 03:15:13;;;;;;;1.80;1.70;;;9.50;73.40;;;;;;5056458;28;20122;-83
2021/03/21 03:17:42;;;;;;;1.60;1.50;;;9.50;73.50;;;;;;5062921;28;20481;-82
2021/03/21 03:20:49;;;;;;;2.22;1.75;;;9.50;73.50;;;;;;5066615;28;20033;-83
2021/03/21 03:23:32;;;;;;;1.70;1.60;;;9.50;73.60;;;;;;5057167;28;20087;-84
2021/03/21 03:26:02;;;;;;;2.00;1.80;;;9.50;73.50;;;;;;5049948;28;20021;-83
2021/03/21 03:29:01;;;;;;;2.03;1.60;;;9.50;73.50;;;;;;5065503;28;20021;-84
2021/03/21 03:31:47;;;;;;;1.83;1.73;;;9.50;73.70;;;;;;5037087;28;20105;-84
2021/03/21 03:34:14;;;;;;;1.95;1.60;;;9.50;73.50;;;;;;5049077;28;20031;-84
2021/03/21 03:36:39;;;;;;;2.90;2.00;;;9.50;73.50;;;;;;5054836;28;20085;-84
2021/03/21 03:39:06;;;;;;;2.08;1.88;;;9.50;73.50;;;;;;5062817;28;20029;-84
2021/03/21 03:41:42;;;;;;;2.78;2.30;;;9.50;73.60;;;;;;5069975;28;20465;-83
2021/03/21 03:44:08;;;;;;;2.53;2.05;;;9.50;73.60;;;;;;5055915;28;20107;-84
2021/03/21 03:46:47;;;;;;;2.60;2.13;;;9.50;73.50;;;;;;5049421;28;20117;-84
2021/03/21 03:49:41;;;;;;;3.67;2.40;;;9.50;73.60;;;;;;5074239;28;20024;-84
2021/03/21 03:52:26;;;;;;;3.13;2.33;;;9.50;73.60;;;;;;5067000;28;20461;-84
2021/03/21 03:55:15;;;;;;;2.88;2.30;;;9.50;73.50;;;;;;5060823;28;20479;-83
2021/03/21 03:58:03;;;;;;;3.00;2.30;;;9.50;73.60;;;;;;5072079;28;20044;-83
2021/03/21 04:00:37;;;;;;;2.78;2.20;;;9.50;73.70;;;;;;5052673;28;20024;-83
2021/03/21 04:03:40;;;;;;;2.58;2.15;;;9.50;73.60;;;;;;5041303;28;20017;-84
2021/03/21 04:06:15;;;;;;;2.65;2.17;;;9.50;73.70;;;;;;5043734;28;20027;-84
2021/03/21 04:09:04;;;;;;;3.03;2.30;;;9.50;73.60;;;;;;5070654;28;20036;-84
2021/03/21 04:11:42;;;;;;;3.53;2.47;;;9.50;73.70;;;;;;5072437;28;20055;-84
2021/03/21 04:14:15;;;;;;;3.08;2.60;;;9.40;73.70;;;;;;5055201;28;20040;-84
2021/03/21 04:16:57;;;;;;;2.92;2.30;;;9.50;73.80;;;;;;5061297;28;20083;-83
2021/03/21 04:19:28;;;;;;;2.92;2.35;;;9.50;73.80;;;;;;5066674;28;20033;-84
2021/03/21 04:22:05;;;;;;;3.50;2.67;;;9.50;73.80;;;;;;5063799;28;20020;-84
2021/03/21 04:24:45;;;;;;;4.70;3.20;;;9.40;73.80;;;;;;5054209;28;20028;-86
2021/03/21 04:27:20;;;;;;;4.00;2.90;;;9.50;73.80;;;;;;5046204;28;20032;-84
2021/03/21 04:30:01;;;;;;;3.72;2.70;;;9.50;73.80;;;;;;5067414;28;20028;-84
2021/03/21 04:32:33;;;;;;;3.78;2.75;;;9.50;73.90;;;;;;5065881;28;20464;-84
2021/03/21 04:35:03;;;;;;;3.20;2.55;;;9.50;73.80;;;;;;5069376;28;20020;-84
2021/03/21 04:37:31;;;;;;;3.85;2.85;;;9.50;73.80;;;;;;5073495;28;20100;-83
2021/03/21 04:40:00;;;;;;;4.25;2.75;;;9.50;73.80;;;;;;5048789;28;20027;-84
2021/03/21 04:42:40;;;;;;;3.40;2.78;;;9.50;73.80;;;;;;5057819;28;20489;-83
2021/03/21 04:45:16;;;;;;;4.40;3.00;;;9.50;73.90;;;;;;5041683;28;20025;-83
2021/03/21 04:48:05;;;;;;;4.28;3.30;;;9.50;73.90;;;;;;5055117;28;20028;-84
2021/03/21 04:50:33;;;;;;;3.60;2.67;;;9.50;73.90;;;;;;5052122;28;20033;-84
2021/03/21 04:53:06;;;;;;;4.20;2.90;;;9.50;73.80;;;;;;5049924;28;20074;-84
2021/03/21 04:55:41;;;;;;;4.00;2.92;;;9.50;73.90;;;;;;5069351;28;20158;-84
2021/03/21 04:58:30;;;;;;;;;;;9.40;73.80;;;;;;5072187;28;20079;-84
2021/03/21 05:01:21;;;;;;;3.25;2.47;;;9.40;73.80;;;;;;5071787;28;19913;-83
2021/03/21 05:04:02;;;;;;;4.22;2.92;;;9.50;73.70;;;;;;5071715;28;20028;-84
2021/03/21 05:06:52;;;;;;;3.53;2.42;;;9.40;73.80;;;;;;5055222;28;20487;-85
2021/03/21 05:09:28;;;;;;;3.40;2.60;;;9.40;73.90;;;;;;5048893;28;20108;-84
2021/03/21 05:12:03;;;;;;;4.05;3.05;;;9.40;73.90;;;;;;5054538;28;20024;-84
2021/03/21 05:14:32;;;;;;;4.25;3.13;;;9.40;73.90;;;;;;5045470;28;20061;-84
2021/03/21 05:17:01;;;;;;;3.85;3.00;;;9.40;73.90;;;;;;5066934;28;20528;-83
2021/03/21 05:19:51;;;;;;;5.50;3.28;;;9.40;73.90;;;;;;5051356;28;20018;-83
2021/03/21 05:22:42;;;;;;;4.45;3.33;;;9.40;74.10;;;;;;5044498;28;20060;-84
2021/03/21 05:25:27;;;;;;;4.68;3.20;;;9.40;74.00;;;;;;5065662;28;20021;-84
2021/03/21 05:28:45;;;;;;;4.57;3.35;;;9.40;74.00;;;;;;5061807;28;20104;-83
2021/03/21 05:31:11;;;;;;;4.47;3.10;;;9.40;74.10;;;;;;5041060;28;20818;-84
2021/03/21 05:33:39;;;;;;;4.05;2.97;;;9.40;73.80;;;;;;5026203;28;20039;-83
2021/03/21 05:36:18;;;;;;;4.35;2.95;;;9.40;74.00;;;;;;5029097;28;20029;-84
2021/03/21 05:38:54;;;;;;;4.40;2.88;;;9.40;74.00;;;;;;5052474;28;20048;-84
2021/03/21 05:41:26;;;;;;;4.93;3.25;;;9.40;74.00;;;;;;5050917;28;20059;-85
2021/03/21 05:44:14;;;;;;;4.75;3.20;;;9.40;74.00;;;;;;5055611;28;20075;-84
2021/03/21 05:46:42;;;;;;;5.13;3.22;;;9.40;74.00;;;;;;5052296;28;20485;-84
2021/03/21 05:49:30;;;;;;;4.18;2.97;;;9.40;74.00;;;;;;5071495;28;20021;-84
2021/03/21 05:52:18;;;;;;;4.28;2.97;;;9.40;74.10;;;;;;5069085;28;20040;-84
2021/03/21 05:54:53;;;;;;;4.80;3.03;;;9.40;73.90;;;;;;5059849;28;20112;-85
2021/03/21 05:57:37;;;;;;;4.68;3.25;;;9.40;74.00;;;;;;5054873;28;20056;-84
2021/03/21 06:00:25;;;;;;;4.55;2.72;;;9.40;74.10;;;;;;5057619;28;20032;-85
2021/03/21 06:03:18;;;;;;;4.75;2.97;;;9.40;74.10;;;;;;5054602;28;20382;-84
2021/03/21 06:06:16;;;;;;;5.75;2.72;;;9.40;74.10;;;;;;5073545;28;20024;-86
2021/03/21 06:09:00;;;;;;;4.20;2.83;;;9.40;74.00;;;;;;5073682;28;20031;-83
2021/03/21 06:11:58;;;;;;;3.97;2.83;;;9.40;74.10;;;;;;5052426;28;20041;-84
2021/03/21 06:14:46;;;;;;;4.32;2.60;;;9.40;74.10;;;;;;5063568;28;20051;-84
2021/03/21 06:17:18;;;;;;;3.42;2.53;;;9.40;74.10;;;;;;5057614;28;20063;-84
2021/03/21 06:20:08;;;;;;;2.47;2.03;;;9.40;74.10;;;;;;5046085;28;20037;-83
2021/03/21 06:23:06;;;;;;;2.92;2.15;;;9.40;74.20;;;;;;5060820;28;20060;-84
2021/03/21 06:25:35;;;;;;;2.45;1.90;;;9.40;74.20;;;;;;5060498;28;20035;-84
2021/03/21 06:28:16;;;;;;;2.47;1.83;;;9.40;74.10;;;;;;5074064;28;20024;-83
2021/03/21 06:31:29;;;;;;;4.05;2.05;;;9.40;74.20;;;;;;5074172;28;20033;-84
2021/03/21 06:34:29;;;;;;;3.40;2.10;;;9.40;74.30;;;;;;5010198;28;20037;-84
2021/03/21 06:37:04;;;;;;;3.40;1.95;;;9.40;74.20;;;;;;5046698;28;20448;-83
2021/03/21 06:40:07;;;;;;;2.95;1.90;;;9.40;74.10;;;;;;5044055;28;20027;-84
2021/03/21 06:43:15;;;;;;;1.92;1.65;;;9.40;74.30;;;;;;5057440;28;20032;-83
2021/03/21 06:46:18;;;;;;;3.28;1.60;;;9.40;74.30;;;;;;4964178;28;20077;-83
2021/03/21 06:48:59;;;;;;;2.55;1.58;;;9.40;74.30;;;;;;4988307;28;20026;-87
2021/03/21 06:51:42;;;;;;;2.53;1.33;;;9.40;74.20;;;;;;5076037;28;20115;-83
2021/03/21 06:54:31;;;;;;;3.25;1.70;;;9.40;74.20;;;;;;5057812;28;20021;-85
2021/03/21 06:57:34;;;;;;;4.20;1.60;;;9.40;74.30;;;;;;5053528;28;20488;-84
2021/03/21 07:00:09;;;;;;;1.98;1.50;;;9.40;74.30;;;;;;5070128;28;20067;-85
2021/03/21 07:03:10;;;;;;;2.47;1.60;;;9.40;74.20;;;;;;5057350;28;20115;-85
2021/03/21 07:06:24;;;;;;;2.25;1.55;;;9.40;74.40;;;;;;5053649;28;20039;-83
2021/03/21 07:08:58;;;;;;;2.53;1.40;;;9.40;74.40;;;;;;5015291;28;20706;-84
2021/03/21 07:11:33;;;;;;;1.80;1.58;;;9.40;74.30;;;;;;5066760;28;20055;-83
2021/03/21 07:14:21;;;;;;;3.25;1.40;;;9.40;74.30;;;;;;5067404;28;20075;-84
2021/03/21 07:17:05;;;;;;;2.42;1.50;;;9.40;75.10;;;;;;5045484;28;20487;-84
2021/03/21 07:19:34;;;;;;;3.63;1.40;;;9.40;74.40;;;;;;5041243;28;20059;-84
2021/03/21 07:22:27;;;;;;;2.75;1.70;;;9.40;74.30;;;;;;5068567;28;20453;-84
2021/03/21 07:25:27;;;;;;;2.08;1.20;;;9.40;74.40;;;;;;5065146;28;20469;-85
2021/03/21 07:28:07;;;;;;;2.45;1.23;;;9.40;74.40;;;;;;5040650;28;20031;-84
2021/03/21 07:30:46;;;;;;;2.55;1.13;;;9.40;74.30;;;;;;5053432;28;20036;-85
2021/03/21 07:33:40;;;;;;;2.60;1.38;;;9.40;74.30;;;;;;5059820;28;20020;-84
2021/03/21 07:36:32;;;;;;;1.95;1.25;;;9.40;74.50;;;;;;5056541;28;20028;-85
2021/03/21 07:39:29;;;;;;;2.08;1.30;;;9.50;74.30;;;;;;5029892;28;20037;-81
2021/03/21 07:42:38;;;;;;;2.15;1.33;;;9.50;74.40;;;;;;5060226;28;20013;-82
2021/03/21 07:45:21;;;;;;;2.83;1.30;;;9.50;74.40;;;;;;5034297;28;20037;-83
2021/03/21 07:48:11;;;;;;;1.88;1.10;;;9.50;74.30;;;;;;5067423;28;20025;-81
2021/03/21 07:51:01;;;;;;;4.20;1.20;;;9.50;74.40;;;;;;5054556;28;20507;-82
2021/03/21 07:53:40;;;;;;;3.72;1.30;;;9.50;74.50;;;;;;5064416;28;20031;-81
2021/03/21 07:56:15;;;;;;;3.05;1.40;;;9.50;74.40;;;;;;5043893;28;20114;-82
2021/03/21 07:58:47;;;;;;;2.83;1.40;;;9.50;74.40;;;;;;5069404;28;20021;-81
2021/03/21 08:01:13;;;;;;;2.55;1.20;;;9.50;74.30;;;;;;5041637;28;20029;-81
2021/03/21 08:04:01;;;;;;;1.85;1.20;;;9.60;74.30;;;;;;5069063;28;20028;-81
2021/03/21 08:06:37;;;;;;;2.53;1.13;;;9.60;74.50;;;;;;5051963;28;20314;-81
2021/03/21 08:09:17;;;;;;;2.53;1.35;;;9.60;74.30;;;;;;5043200;28;20449;-82
2021/03/21 08:11:53;;;;;;;3.50;1.20;;;9.60;74.30;;;;;;5088759;28;20033;-81
2021/03/21 08:14:28;;;;;;;3.30;1.20;;;9.60;74.20;;;;;;5065721;28;20135;-81
2021/03/21 08:16:57;;;;;;;2.77;1.33;;;9.60;74.30;;;;;;5067356;28;20045;-82
2021/03/21 08:19:27;;;;;;;2.95;1.20;;;9.60;74.20;;;;;;5068024;28;20279;-82
2021/03/21 08:21:55;;;;;;;1.83;1.20;;;9.70;74.20;;;;;;5058029;28;20048;-83
2021/03/21 08:24:35;;;;;;;2.97;1.20;;;9.70;74.30;;;;;;5040932;28;20036;-82
2021/03/21 08:27:09;;;;;;;4.50;1.90;;;9.70;74.30;;;;;;5064068;28;20350;-83
2021/03/21 08:29:59;;;;;;;2.70;1.17;;;9.70;74.20;;;;;;5053071;28;20031;-83
2021/03/21 08:32:26;;;;;;;3.72;1.40;;;9.70;74.30;;;;;;5058388;28;20029;-91
2021/03/21 08:34:51;;;;;;;2.38;0.93;;;9.70;74.20;;;;;;5056123;28;20028;-82
2021/03/21 08:37:22;;;;;;;5.30;1.50;;;9.80;74.20;;;;;;5051901;28;20032;-82
2021/03/21 08:39:52;;;;;;;5.00;2.20;;;9.80;74.20;;;;;;5049409;28;20028;-81
2021/03/21 08:42:30;;;;;;;4.55;1.88;;;9.80;74.20;;;;;;5063423;28;20070;-79
2021/03/21 08:45:02;;;;;;;6.72;1.80;;;9.80;74.20;;;;;;5071905;28;20095;-81
2021/03/21 08:47:29;;;;;;;4.80;1.67;;;9.80;74.10;;;;;;5061952;28;20086;-84
2021/03/21 08:49:57;;;;;;;6.13;1.50;;;9.80;74.00;;;;;;5019545;28;20040;-82
2021/03/21 08:52:44;;;;;;;3.80;1.38;;;9.90;74.10;;;;;;5062170;28;20021;-84
2021/03/21 08:55:34;;;;;;;4.28;1.52;;;9.90;74.10;;;;;;5067896;28;20032;-82
2021/03/21 08:58:24;;;;;;;3.92;1.70;;;9.90;74.10;;;;;;5059378;28;20029;-80
2021/03/21 09:00:50;;;;;;;5.75;1.70;;;9.90;73.90;;;;;;5044529;28;20029;-80
2021/03/21 09:03:31;;;;;;;4.50;1.58;;;9.90;73.80;;;;;;5021378;28;20036;-80
2021/03/21 09:05:58;;;;;;;3.65;1.55;;;9.90;73.90;;;;;;5058598;28;20029;-81
2021/03/21 09:08:27;;;;;;;5.15;1.48;;;9.90;73.70;;;;;;5054650;28;20487;-81
2021/03/21 09:11:02;;;;;;;5.38;1.90;;;10.00;73.70;;;;;;5052396;28;20036;-80
2021/03/21 09:13:33;;;;;;;;;;;10.00;73.70;;;;;;5053679;28;20047;-80
2021/03/21 09:16:03;;;;;;;4.25;1.80;;;10.00;73.70;;;;;;5060285;28;19922;-80
2021/03/21 09:18:43;;;;;;;4.47;1.60;;;10.00;73.50;;;;;;5058036;28;20029;-80
2021/03/21 09:21:17;;;;;;;6.68;1.77;;;10.00;73.60;;;;;;5055758;28;20037;-80
2021/03/21 09:24:00;;;;;;;6.38;2.00;;;10.00;73.60;;;;;;5053739;28;20028;-80
2021/03/21 09:26:39;;;;;;;5.60;1.98;;;10.00;73.60;;;;;;5070736;28;20036;-80
2021/03/21 09:29:15;;;;;;;4.70;1.90;;;10.10;73.60;;;;;;5064234;28;20034;-81
2021/03/21 09:31:41;;;;;;;4.50;1.55;;;10.10;73.50;;;;;;5067219;28;20500;-80
2021/03/21 09:34:26;;;;;;;5.32;1.90;;;10.10;73.50;;;;;;5041032;28;20028;-80
2021/03/21 09:37:07;;;;;;;4.65;1.73;;;10.10;73.60;;;;;;5071850;28;20028;-79
2021/03/21 09:39:40;;;;;;;5.68;1.80;;;10.20;73.50;;;;;;5046804;28;20024;-79
2021/03/21 09:42:11;;;;;;;3.90;1.60;;;10.20;73.40;;;;;;5054717;28;20177;-80
2021/03/21 09:44:42;;;;;;;5.10;1.85;;;10.20;73.40;;;;;;5074214;28;20117;-81
2021/03/21 09:47:26;;;;;;;6.80;2.40;;;10.20;73.30;;;;;;5063470;28;20021;-82
2021/03/21 09:50:02;;;;;;;7.63;2.45;;;10.20;73.20;;;;;;5073506;28;20461;-81
2021/03/21 09:52:57;;;;;;;8.68;2.33;;;10.30;73.20;;;;;;5057954;28;20119;-83
2021/03/21 09:55:42;;;;;;;7.10;2.13;;;10.30;73.20;;;;;;5040825;28;20037;-80
2021/03/21 09:58:36;;;;;;;5.32;1.75;;;10.30;73.10;;;;;;5051608;28;20021;-80
2021/03/21 10:01:05;;;;;;;4.75;1.83;;;10.30;73.00;;;;;;5022188;28;20048;-81
2021/03/21 10:03:33;;;;;;;5.55;2.03;;;10.30;72.90;;;;;;5062848;28;20045;-81
2021/03/21 10:06:16;;;;;;;5.75;2.00;;;10.30;72.90;;;;;;5074748;28;20033;-81
2021/03/21 10:08:52;;;;;;;3.63;1.73;;;10.40;73.00;;;;;;5057465;28;20412;-82
2021/03/21 10:11:36;;;;;;;5.95;2.30;;;10.40;72.90;;;;;;5051845;28;20037;-81
2021/03/21 10:14:21;;;;;;;5.55;1.90;;;10.40;72.90;;;;;;5071440;28;20028;-81
2021/03/21 10:16:47;;;;;;;7.25;1.95;;;10.40;72.70;;;;;;5073127;28;20024;-82
2021/03/21 10:19:39;;;;;;;7.72;2.63;;;10.50;72.40;;;;;;5066479;28;20099;-79
2021/03/21 10:22:17;;;;;;;7.20;2.60;;;10.40;72.00;;;;;;5069359;28;20035;-81
2021/03/21 10:24:45;;;;;;;6.60;2.50;;;10.50;71.60;;;;;;5073332;28;20029;-81
2021/03/21 10:27:14;;;;;;;7.85;2.53;;;10.50;71.60;;;;;;5065083;28;20033;-80
2021/03/21 10:29:40;;;;;;;10.77;2.72;;;10.40;71.10;;;;;;5066858;28;20024;-79
2021/03/21 10:32:18;;;;;;;7.57;2.53;;;10.50;71.10;;;;;;5061344;28;20385;-79
2021/03/21 10:34:44;;;;;;;8.60;2.22;;;10.50;71.00;;;;;;5072076;28;20021;-80
2021/03/21 10:37:10;;;;;;;11.50;2.58;;;10.50;70.90;;;;;;5046721;28;20533;-78
2021/03/21 10:39:42;;;;;;;6.43;2.10;;;10.60;70.90;;;;;;5051275;28;20484;-79
2021/03/21 10:42:37;;;;;;;8.18;2.40;;;10.60;70.90;;;;;;5065349;28;20071;-79
2021/03/21 10:45:15;;;;;;;6.57;1.95;;;10.60;71.00;;;;;;5072068;28;20028;-79
2021/03/21 10:47:44;;;;;;;8.02;2.38;;;10.70;70.90;;;;;;5073133;28;20017;-80
2021/03/21 10:50:27;;;;;;;7.88;2.70;;;10.70;70.90;;;;;;5073872;28;20024;-80
2021/03/21 10:53:22;;;;;;;7.90;2.20;;;10.80;71.00;;;;;;5070013;28;20029;-84
2021/03/21 10:56:14;;;;;;;7.20;2.33;;;10.80;71.10;;;;;;5055756;28;20029;-84
2021/03/21 10:58:46;;;;;;;4.93;1.80;;;10.80;71.10;;;;;;5052388;28;20071;-82
2021/03/21 11:01:22;;;;;;;8.02;2.47;;;10.90;71.10;;;;;;5070339;28;20442;-82
2021/03/21 11:03:51;;;;;;;5.35;2.13;;;10.90;71.10;;;;;;5064448;28;20031;-81
2021/03/21 11:06:19;;;;;;;5.25;2.25;;;10.90;71.10;;;;;;5046512;28;20090;-82
2021/03/21 11:08:50;;;;;;;6.43;2.50;;;10.90;71.10;;;;;;5060810;28;20028;-82
2021/03/21 11:11:21;;;;;;;7.00;1.88;;;10.90;71.10;;;;;;5066408;28;20093;-82
2021/03/21 11:13:48;;;;;;;5.47;2.15;;;11.00;71.10;;;;;;5056366;28;20020;-83
2021/03/21 11:16:21;;;;;;;7.07;2.20;;;11.00;71.10;;;;;;5055992;28;20476;-83
2021/03/21 11:19:01;;;;;;;7.82;2.17;;;11.10;71.10;;;;;;5056505;28;20025;-83
2021/03/21 11:21:32;;;;;;;6.30;2.13;;;11.10;71.10;;;;;;5063801;28;20060;-82
2021/03/21 11:24:05;;;;;;;4.45;1.92;;;11.20;71.10;;;;;;5056232;28;20024;-82
2021/03/21 11:26:37;;;;;;;4.45;2.20;;;11.20;71.10;;;;;;5072489;28;20077;-83
2021/03/21 11:29:06;;;;;;;6.80;2.13;;;11.20;71.10;;;;;;5048319;28;20123;-84
2021/03/21 11:31:47;;;;;;;5.55;2.70;;;11.20;71.00;;;;;;5042422;28;20037;-83
2021/03/21 11:34:24;;;;;;;6.95;2.30;;;11.30;71.00;;;;;;5067289;28;20029;-84
2021/03/21 11:37:08;;;;;;;5.95;2.22;;;11.30;71.00;;;;;;5046069;28;20078;-82
2021/03/21 11:39:40;;;;;;;8.47;2.43;;;11.30;71.10;;;;;;5073592;28;20029;-82
2021/03/21 11:42:17;;;;;;;8.50;2.25;;;11.40;70.90;;;;;;5072654;28;20020;-82
2021/03/21 11:44:44;;;;;;;6.93;2.30;;;11.40;70.80;;;;;;5039084;28;20024;-84
2021/03/21 11:47:29;;;;;;;5.28;2.05;;;11.40;70.80;;;;;;5045024;28;20373;-83
2021/03/21 11:49:57;;;;;;;6.18;2.20;;;11.50;70.90;;;;;;5069111;28;20037;-85
2021/03/21 11:52:24;;;;;;;5.50;1.88;;;11.50;70.80;;;;;;5042013;28;20116;-84
2021/03/21 11:54:51;;;;;;;7.68;2.47;;;11.50;70.80;;;;;;5054199;28;20047;-83
2021/03/21 11:57:30;;;;;;;4.45;1.98;;;11.50;70.70;;;;;;5067638;28;20033;-83
2021/03/21 12:00:12;;;;;;;7.88;2.05;;;11.50;70.70;;;;;;5068436;28;20036;-83
2021/03/21 12:02:44;;;;;;;7.40;2.53;;;11.60;70.70;;;;;;5053940;28;20361;-84
2021/03/21 12:05:18;;;;;;;5.68;2.72;;;11.60;70.70;;;;;;5071752;28;20028;-81
2021/03/21 12:07:44;;;;;;;8.80;2.53;;;11.70;70.80;;;;;;5051684;28;20021;-80
2021/03/21 12:10:26;;;;;;;8.75;2.35;;;11.70;70.80;;;;;;5050596;28;20105;-81
2021/03/21 12:12:52;;;;;;;4.65;1.70;;;11.70;70.70;;;;;;5062194;28;20086;-81
2021/03/21 12:15:24;;;;;;;6.88;2.50;;;11.70;70.70;;;;;;5043473;28;20053;-80
2021/03/21 12:18:16;;;;;;;5.35;2.08;;;11.80;70.70;;;;;;5071457;28;20417;-81
2021/03/21 12:20:50;;;;;;;5.75;1.95;;;11.80;70.80;;;;;;5027335;28;20381;-81
2021/03/21 12:23:35;;;;;;;5.93;2.10;;;11.80;70.70;;;;;;5054350;28;20056;-81
2021/03/21 12:26:05;;;;;;;4.95;1.92;;;11.90;70.80;;;;;;5060176;28;20025;-81
2021/03/21 12:28:33;;;;;;;6.05;2.03;;;11.90;70.60;;;;;;5062711;28;20385;-81
2021/03/21 12:31:04;;;;;;;7.53;2.38;;;11.90;70.60;;;;;;5050899;28;20079;-81
2021/03/21 12:33:34;;;;;;;6.03;2.17;;;11.90;70.50;;;;;;5073653;28;20028;-82
2021/03/21 12:36:06;;;;;;;8.13;2.67;;;12.00;70.50;;;;;;5072670;28;20078;-81
2021/03/21 12:38:35;;;;;;;5.82;2.08;;;12.00;70.40;;;;;;5071516;28;20099;-81
2021/03/21 12:41:23;;;;;;;5.60;1.80;;;12.00;70.40;;;;;;5067604;28;20576;-81
2021/03/21 12:44:13;;;;;;;7.07;2.50;;;12.10;70.50;;;;;;5055399;28;20415;-81
2021/03/21 12:46:45;;;;;;;6.35;2.28;;;12.10;70.40;;;;;;5072109;28;20085;-80
2021/03/21 12:49:38;;;;;;;7.68;2.25;;;12.20;70.40;;;;;;5071100;28;20037;-81
2021/03/21 12:52:27;;;;;;;4.13;2.10;;;12.20;70.60;;;;;;5039750;28;20044;-81
2021/03/21 12:54:53;;;;;;;4.13;1.83;;;12.20;70.40;;;;;;5039324;28;20116;-81
2021/03/21 12:57:19;;;;;;;8.45;2.80;;;12.20;70.40;;;;;;5053050;28;20119;-81
2021/03/21 12:59:51;;;;;;;5.88;1.92;;;12.20;70.50;;;;;;5065165;28;20446;-78
2021/03/21 13:02:33;;;;;;;6.05;1.90;;;12.20;70.50;;;;;;5056823;28;20044;-80
2021/03/21 13:05:03;;;;;;;6.97;2.28;;;12.20;70.50;;;;;;5055648;28;20028;-81
2021/03/21 13:07:29;;;;;;;6.57;2.00;;;12.30;71.10;;;;;;5056649;28;20021;-82
2021/03/21 13:09:56;;;;;;;7.28;2.05;;;12.30;70.40;;;;;;5054810;28;20037;-82
2021/03/21 13:12:23;;;;;;;6.72;2.00;;;12.30;70.50;;;;;;5058537;28;20037;-81
2021/03/21 13:14:50;;;;;;;6.55;2.22;;;12.30;70.40;;;;;;5074038;28;20041;-82
2021/03/21 13:17:17;;;;;;;8.68;2.00;;;12.30;70.40;;;;;;5068271;28;20135;-81
2021/03/21 13:19:43;;;;;;;6.13;2.05;;;12.30;70.40;;;;;;5050753;28;20044;-82
2021/03/21 13:22:09;;;;;;;8.05;2.30;;;12.40;70.40;;;;;;5065519;28;20409;-82
2021/03/21 13:24:35;;;;;;;8.63;2.67;;;12.40;70.50;;;;;;5074080;28;20036;-82
2021/03/21 13:27:03;;;;;;;7.60;2.60;;;12.50;70.50;;;;;;5060560;28;20281;-90
2021/03/21 13:29:29;;;;;;;5.82;1.83;;;12.40;70.40;;;;;;5045048;28;20057;-82
2021/03/21 13:31:55;;;;;;;6.82;2.75;;;12.40;70.40;;;;;;5059195;28;20048;-82
2021/03/21 13:34:22;;;;;;;8.20;2.25;;;12.50;70.50;;;;;;5046657;28;20112;-81
2021/03/21 13:36:48;;;;;;;5.75;2.40;;;12.50;70.50;;;;;;5061449;28;20469;-82
2021/03/21 13:39:14;;;;;;;6.47;2.22;;;12.50;70.40;;;;;;5062413;28;20124;-81
2021/03/21 13:41:40;;;;;;;7.75;2.58;;;12.50;70.40;;;;;;5050968;28;20124;-81